createdAt,value
2019-05-03T00:02:27.676Z,59.79
2019-05-03T00:05:27.015Z,59.79
2019-05-03T00:08:07.738Z,59.81
2019-05-03T00:10:39.656Z,59.85
2019-05-03T00:13:12.310Z,59.86
2019-05-03T00:16:00.433Z,59.90
2019-05-03T00:18:32.818Z,59.89
2019-05-03T00:21:03.230Z,59.93
2019-05-03T00:23:33.531Z,59.95
2019-05-03T00:26:03.853Z,59.95
2019-05-03T00:28:34.179Z,59.94
2019-05-03T00:31:04.601Z,59.94
2019-05-03T00:33:36.561Z,59.94
2019-05-03T00:36:22.168Z,59.99
2019-05-03T00:38:54.643Z,59.99
2019-05-03T00:41:24.983Z,60.02
2019-05-03T00:43:55.270Z,60.03
2019-05-03T00:46:27.181Z,60.03
2019-05-03T00:48:57.544Z,60.05
2019-05-03T00:51:27.842Z,60.07
2019-05-03T00:53:58.213Z,60.07
2019-05-03T00:56:28.716Z,60.12
2019-05-03T00:58:59.302Z,60.15
2019-05-03T01:01:29.576Z,60.20
2019-05-03T01:04:01.669Z,60.22
2019-05-03T01:06:33.990Z,60.24
2019-05-03T01:09:07.800Z,60.27
2019-05-03T01:11:38.112Z,60.29
2019-05-03T01:14:08.764Z,60.29
2019-05-03T01:16:42.662Z,60.33
2019-05-03T01:19:13.744Z,60.36
2019-05-03T01:21:45.044Z,60.37
2019-05-03T01:24:18.104Z,60.38
2019-05-03T01:26:47.653Z,60.41
2019-05-03T01:29:22.905Z,60.43
2019-05-03T01:31:53.197Z,60.47
2019-05-03T01:34:23.508Z,60.51
2019-05-03T01:36:53.838Z,60.48
2019-05-03T01:39:24.706Z,60.56
2019-05-03T01:41:55.117Z,60.56
2019-05-03T01:44:25.457Z,60.57
2019-05-03T01:46:57.396Z,60.60
2019-05-03T01:49:34.143Z,60.62
2019-05-03T01:52:15.297Z,60.80
2019-05-03T01:54:45.825Z,60.74
2019-05-03T01:57:17.351Z,60.74
2019-05-03T01:59:47.786Z,60.68
2019-05-03T02:02:41.854Z,60.70
2019-05-03T02:05:32.084Z,60.71
2019-05-03T02:08:02.575Z,60.74
2019-05-03T02:10:32.656Z,60.78
2019-05-03T02:13:02.984Z,60.78
2019-05-03T02:15:33.464Z,60.80
2019-05-03T02:18:03.745Z,60.82
2019-05-03T02:20:34.050Z,60.85
2019-05-03T02:23:05.651Z,60.85
2019-05-03T02:25:35.808Z,60.88
2019-05-03T02:28:06.458Z,60.87
2019-05-03T02:30:39.995Z,60.87
2019-05-03T02:33:13.088Z,61.02
2019-05-03T02:35:43.879Z,60.91
2019-05-03T02:38:15.552Z,60.91
2019-05-03T02:40:46.007Z,60.99
2019-05-03T02:43:26.259Z,60.99
2019-05-03T02:46:16.807Z,60.95
2019-05-03T02:49:09.555Z,61.08
2019-05-03T02:51:40.195Z,61.00
2019-05-03T02:54:10.470Z,61.00
2019-05-03T02:56:40.778Z,61.04
2019-05-03T02:59:15.831Z,61.21
2019-05-03T03:01:47.171Z,61.21
2019-05-03T03:04:19.338Z,61.12
2019-05-03T03:06:55.459Z,61.09
2019-05-03T03:09:26.169Z,61.13
2019-05-03T03:11:58.899Z,61.17
2019-05-03T03:14:30.358Z,61.18
2019-05-03T03:17:02.866Z,61.21
2019-05-03T03:19:35.361Z,61.22
2019-05-03T03:22:11.423Z,61.24
2019-05-03T03:24:45.972Z,61.15
2019-05-03T03:27:19.835Z,61.15
2019-05-03T03:29:55.280Z,61.30
2019-05-03T03:32:37.871Z,61.34
2019-05-03T03:35:21.125Z,61.33
2019-05-03T03:37:48.448Z,61.37
2019-05-03T03:40:19.930Z,61.39
2019-05-03T03:42:55.753Z,61.47
2019-05-03T03:45:26.547Z,61.47
2019-05-03T03:47:59.357Z,61.45
2019-05-03T03:50:35.988Z,61.47
2019-05-03T03:53:08.273Z,61.64
2019-05-03T03:55:40.951Z,61.64
2019-05-03T03:58:11.244Z,61.57
2019-05-03T04:00:50.026Z,61.61
2019-05-03T04:03:20.931Z,61.62
2019-05-03T04:05:51.783Z,61.65
2019-05-03T04:08:25.060Z,61.64
2019-05-03T04:10:55.829Z,61.68
2019-05-03T04:13:27.093Z,61.91
2019-05-03T04:16:20.331Z,61.91
2019-05-03T04:19:02.394Z,61.74
2019-05-03T04:21:32.855Z,61.79
2019-05-03T04:24:05.769Z,61.83
2019-05-03T04:26:37.018Z,61.83
2019-05-03T04:29:07.855Z,61.84
2019-05-03T04:31:39.151Z,61.87
2019-05-03T04:34:10.010Z,61.89
2019-05-03T04:36:40.592Z,62.07
2019-05-03T04:39:11.234Z,62.07
2019-05-03T04:41:41.510Z,61.99
2019-05-03T04:44:11.815Z,62.03
2019-05-03T04:46:46.260Z,62.05
2019-05-03T04:49:15.565Z,62.09
2019-05-03T04:51:47.686Z,62.11
2019-05-03T04:54:35.561Z,62.13
2019-05-03T04:57:06.769Z,62.17
2019-05-03T04:59:38.214Z,62.23
2019-05-03T05:02:08.464Z,62.26
2019-05-03T05:04:38.752Z,62.29
2019-05-03T05:07:10.045Z,62.31
2019-05-03T05:09:45.612Z,62.36
2019-05-03T05:12:16.432Z,62.40
2019-05-03T05:14:48.924Z,62.44
2019-05-03T05:17:29.249Z,62.48
2019-05-03T05:20:11.730Z,62.50
2019-05-03T05:22:42.497Z,62.57
2019-05-03T05:25:16.621Z,62.62
2019-05-03T05:28:15.037Z,62.67
2019-05-03T05:30:45.555Z,62.72
2019-05-03T05:33:21.715Z,62.77
2019-05-03T05:35:54.511Z,62.82
2019-05-03T05:38:25.742Z,62.82
2019-05-03T05:40:56.198Z,62.82
2019-05-03T05:43:26.685Z,62.82
2019-05-03T05:46:01.473Z,62.79
2019-05-03T05:48:36.894Z,62.79
2019-05-03T05:51:09.945Z,62.78
2019-05-03T05:53:40.296Z,62.80
2019-05-03T05:56:35.766Z,62.83
2019-05-03T05:59:16.701Z,62.86
2019-05-03T06:01:55.831Z,62.93
2019-05-03T06:04:27.129Z,63.00
2019-05-03T06:07:24.721Z,63.12
2019-05-03T06:10:05.257Z,63.22
2019-05-03T06:12:54.688Z,63.36
2019-05-03T06:15:54.700Z,63.42
2019-05-03T06:18:30.265Z,63.51
2019-05-03T06:21:17.453Z,63.64
2019-05-03T06:23:56.343Z,63.68
2019-05-03T06:26:40.664Z,63.85
2019-05-03T06:29:10.975Z,63.89
2019-05-03T06:32:01.719Z,63.95
2019-05-03T06:34:32.068Z,63.94
2019-05-03T06:37:05.008Z,63.88
2019-05-03T06:39:35.339Z,63.81
2019-05-03T06:42:09.919Z,63.74
2019-05-03T06:44:38.598Z,63.76
2019-05-03T06:47:10.492Z,63.87
2019-05-03T06:49:44.890Z,64.06
2019-05-03T06:52:14.743Z,64.31
2019-05-03T06:54:45.242Z,64.52
2019-05-03T06:57:18.044Z,64.67
2019-05-03T07:00:01.116Z,64.63
2019-05-03T07:02:41.369Z,64.40
2019-05-03T07:05:20.427Z,64.23
2019-05-03T07:08:00.786Z,64.25
2019-05-03T07:10:35.263Z,64.49
2019-05-03T07:13:08.761Z,64.59
2019-05-03T07:15:37.860Z,64.84
2019-05-03T07:18:08.757Z,64.90
2019-05-03T07:20:56.746Z,64.77
2019-05-03T07:23:25.838Z,64.73
2019-05-03T07:25:57.368Z,64.65
2019-05-03T07:28:27.662Z,64.64
2019-05-03T07:30:58.012Z,64.71
2019-05-03T07:33:32.181Z,64.79
2019-05-03T07:36:05.574Z,64.87
2019-05-03T07:38:36.433Z,64.84
2019-05-03T07:41:09.127Z,64.91
2019-05-03T07:43:41.703Z,64.90
2019-05-03T07:46:14.537Z,64.73
2019-05-03T07:48:45.702Z,64.55
2019-05-03T07:51:16.046Z,64.34
2019-05-03T07:53:47.749Z,64.14
2019-05-03T07:56:18.548Z,64.01
2019-05-03T07:58:59.958Z,64.02
2019-05-03T08:01:31.078Z,64.13
2019-05-03T08:04:01.374Z,64.21
2019-05-03T08:06:31.683Z,64.26
2019-05-03T08:09:04.763Z,64.29
2019-05-03T08:11:35.250Z,64.29
2019-05-03T08:14:07.032Z,64.27
2019-05-03T08:16:37.371Z,64.18
2019-05-03T08:19:09.308Z,64.12
2019-05-03T08:21:39.674Z,64.02
2019-05-03T08:24:10.016Z,64.08
2019-05-03T08:26:40.709Z,64.04
2019-05-03T08:29:16.252Z,64.09
2019-05-03T08:32:05.195Z,63.97
2019-05-03T08:34:55.586Z,63.90
2019-05-03T08:37:39.515Z,63.80
2019-05-03T08:40:09.891Z,63.86
2019-05-03T08:42:40.602Z,63.81
2019-05-03T08:45:14.663Z,63.75
2019-05-03T08:47:45.128Z,63.61
2019-05-03T08:50:21.174Z,63.52
2019-05-03T08:52:47.777Z,63.45
2019-05-03T08:55:18.070Z,63.37
2019-05-03T08:57:48.716Z,63.32
2019-05-03T09:00:20.774Z,63.31
2019-05-03T09:02:52.203Z,63.40
2019-05-03T09:05:22.492Z,63.45
2019-05-03T09:07:54.861Z,63.46
2019-05-03T09:10:30.577Z,63.42
2019-05-03T09:13:06.795Z,63.50
2019-05-03T09:15:37.673Z,63.66
2019-05-03T09:18:08.356Z,63.67
2019-05-03T09:20:38.741Z,63.62
2019-05-03T09:23:11.293Z,63.89
2019-05-03T09:25:41.654Z,63.92
2019-05-03T09:28:15.070Z,63.91
2019-05-03T09:30:47.187Z,63.96
2019-05-03T09:33:19.867Z,63.86
2019-05-03T09:35:50.166Z,63.68
2019-05-03T09:38:20.543Z,63.53
2019-05-03T09:40:52.009Z,63.38
2019-05-03T09:43:22.483Z,63.24
2019-05-03T09:45:54.799Z,63.08
2019-05-03T09:48:26.564Z,62.99
2019-05-03T09:50:59.957Z,62.92
2019-05-03T09:53:35.117Z,62.83
2019-05-03T09:56:06.761Z,62.82
2019-05-03T09:58:38.233Z,62.82
2019-05-03T10:01:08.809Z,62.83
2019-05-03T10:03:39.696Z,62.83
2019-05-03T10:06:10.007Z,62.82
2019-05-03T10:08:52.703Z,62.84
2019-05-03T10:11:25.470Z,62.88
2019-05-03T10:13:56.469Z,62.90
2019-05-03T10:16:28.673Z,62.93
2019-05-03T10:19:01.704Z,62.91
2019-05-03T10:21:35.555Z,62.83
2019-05-03T10:24:06.777Z,62.85
2019-05-03T10:26:37.963Z,62.85
2019-05-03T10:29:08.320Z,62.79
2019-05-03T10:31:48.593Z,62.82
2019-05-03T10:34:19.187Z,62.77
2019-05-03T10:36:50.425Z,62.98
2019-05-03T10:39:21.084Z,62.95
2019-05-03T10:41:51.386Z,62.99
2019-05-03T10:44:21.968Z,62.92
2019-05-03T10:46:53.347Z,62.87
2019-05-03T10:49:24.540Z,62.89
2019-05-03T10:52:01.962Z,62.81
2019-05-03T10:54:32.293Z,62.71
2019-05-03T10:57:09.215Z,62.62
2019-05-03T10:59:41.548Z,62.54
2019-05-03T11:02:25.324Z,62.41
2019-05-03T11:04:56.169Z,62.34
2019-05-03T11:07:26.934Z,62.25
2019-05-03T11:09:57.640Z,62.25
2019-05-03T11:12:28.165Z,62.29
2019-05-03T11:14:58.971Z,62.34
2019-05-03T11:17:29.371Z,62.31
2019-05-03T11:20:01.368Z,62.17
2019-05-03T11:22:34.575Z,61.99
2019-05-03T11:25:06.091Z,61.83
2019-05-03T11:27:47.727Z,61.69
2019-05-03T11:30:19.317Z,61.65
2019-05-03T11:33:00.756Z,61.63
2019-05-03T11:36:05.444Z,61.64
2019-05-03T11:38:38.168Z,61.62
2019-05-03T11:41:08.515Z,61.67
2019-05-03T11:43:39.062Z,61.82
2019-05-03T11:46:09.341Z,61.87
2019-05-03T11:48:39.996Z,61.89
2019-05-03T11:51:15.083Z,62.00
2019-05-03T11:53:46.735Z,61.99
2019-05-03T11:56:17.475Z,61.97
2019-05-03T11:58:47.880Z,62.02
2019-05-03T12:01:28.880Z,62.11
2019-05-03T12:04:05.484Z,61.93
2019-05-03T12:06:36.973Z,61.77
2019-05-03T12:09:07.786Z,61.58
2019-05-03T12:11:44.190Z,61.43
2019-05-03T12:14:15.586Z,61.27
2019-05-03T12:17:17.916Z,61.08
2019-05-03T12:19:40.007Z,61.02
2019-05-03T12:22:13.553Z,61.02
2019-05-03T12:24:50.747Z,61.15
2019-05-03T12:27:24.456Z,61.37
2019-05-03T12:29:56.118Z,61.38
2019-05-03T12:32:26.943Z,61.31
2019-05-03T12:34:57.498Z,61.13
2019-05-03T12:37:28.111Z,61.06
2019-05-03T12:39:58.565Z,60.94
2019-05-03T12:42:35.508Z,60.83
2019-05-03T12:45:08.022Z,60.73
2019-05-03T12:47:38.313Z,60.67
2019-05-03T12:50:09.075Z,60.60
2019-05-03T12:52:49.726Z,60.48
2019-05-03T12:55:11.972Z,60.44
2019-05-03T12:57:42.334Z,60.57
2019-05-03T13:00:31.091Z,60.74
2019-05-03T13:03:05.102Z,60.72
2019-05-03T13:05:35.703Z,60.60
2019-05-03T13:08:35.389Z,60.80
2019-05-03T13:11:07.166Z,60.84
2019-05-03T13:13:37.488Z,60.72
2019-05-03T13:16:10.246Z,60.75
2019-05-03T13:18:40.822Z,60.67
2019-05-03T13:21:14.412Z,60.69
2019-05-03T13:23:45.919Z,60.41
2019-05-03T13:26:17.772Z,60.28
2019-05-03T13:28:49.184Z,60.05
2019-05-03T13:31:22.072Z,59.87
2019-05-03T13:33:52.232Z,59.67
2019-05-03T13:36:22.652Z,59.49
2019-05-03T13:39:11.310Z,59.38
2019-05-03T13:41:34.954Z,59.20
2019-05-03T13:44:05.801Z,59.10
2019-05-03T13:46:37.107Z,59.02
2019-05-03T13:49:08.833Z,58.92
2019-05-03T13:51:39.289Z,58.90
2019-05-03T13:54:54.519Z,58.91
2019-05-03T13:57:24.636Z,59.00
2019-05-03T13:59:55.607Z,59.15
2019-05-03T14:02:27.975Z,59.26
2019-05-03T14:04:58.755Z,59.25
2019-05-03T14:07:31.661Z,59.30
2019-05-03T14:10:04.567Z,59.25
2019-05-03T14:12:35.220Z,59.12
2019-05-03T14:15:06.032Z,59.05
2019-05-03T14:17:36.413Z,58.96
2019-05-03T14:20:16.425Z,58.92
2019-05-03T14:22:49.937Z,58.83
2019-05-03T14:25:21.451Z,58.72
2019-05-03T14:27:54.958Z,58.80
2019-05-03T14:30:25.675Z,58.62
2019-05-03T14:32:55.989Z,58.57
2019-05-03T14:35:26.610Z,58.57
2019-05-03T14:37:58.724Z,58.38
2019-05-03T14:40:29.085Z,58.23
2019-05-03T14:42:59.474Z,58.13
2019-05-03T14:45:29.766Z,58.03
2019-05-03T14:48:00.418Z,57.95
2019-05-03T14:50:31.581Z,57.80
2019-05-03T14:53:05.394Z,57.73
2019-05-03T14:55:41.993Z,57.57
2019-05-03T14:58:45.688Z,57.48
2019-05-03T15:01:24.805Z,57.37
2019-05-03T15:03:57.157Z,57.20
2019-05-03T15:06:28.068Z,57.12
2019-05-03T15:08:58.472Z,57.09
2019-05-03T15:11:28.851Z,56.99
2019-05-03T15:13:59.244Z,56.86
2019-05-03T15:16:29.604Z,56.75
2019-05-03T15:19:00.198Z,56.60
2019-05-03T15:21:30.496Z,56.51
2019-05-03T15:24:05.296Z,56.44
2019-05-03T15:26:37.134Z,56.35
2019-05-03T15:29:07.466Z,56.21
2019-05-03T15:31:38.816Z,56.13
2019-05-03T15:34:10.027Z,56.01
2019-05-03T15:36:41.534Z,55.88
2019-05-03T15:39:11.882Z,55.72
2019-05-03T15:41:42.449Z,55.65
2019-05-03T15:44:35.142Z,55.48
2019-05-03T15:47:26.068Z,55.28
2019-05-03T15:49:56.406Z,55.20
2019-05-03T15:52:26.744Z,55.16
2019-05-03T15:54:58.565Z,55.10
2019-05-03T15:57:28.890Z,54.98
2019-05-03T15:59:59.253Z,54.86
2019-05-03T16:02:35.202Z,54.77
2019-05-03T16:05:08.582Z,54.63
2019-05-03T16:07:38.869Z,54.50
2019-05-03T16:10:11.196Z,54.37
2019-05-03T16:12:41.862Z,54.19
2019-05-03T16:15:12.369Z,53.95
2019-05-03T16:17:44.959Z,53.75
2019-05-03T16:20:15.448Z,53.61
2019-05-03T16:22:46.647Z,53.47
2019-05-03T16:25:17.287Z,53.35
2019-05-03T16:27:55.605Z,53.27
2019-05-03T16:30:37.222Z,53.21
2019-05-03T16:33:24.039Z,53.10
2019-05-03T16:35:44.493Z,53.05
2019-05-03T16:38:16.253Z,53.00
2019-05-03T16:40:46.959Z,52.96
2019-05-03T16:43:18.000Z,52.89
2019-05-03T16:45:49.092Z,52.83
2019-05-03T16:48:21.052Z,52.77
2019-05-03T16:50:51.389Z,52.71
2019-05-03T16:53:21.772Z,52.67
2019-05-03T16:55:54.823Z,52.63
2019-05-03T16:58:25.275Z,52.59
2019-05-03T17:00:57.886Z,52.56
2019-05-03T17:03:40.856Z,52.49
2019-05-03T17:06:26.408Z,52.46
2019-05-03T17:09:24.817Z,52.39
2019-05-03T17:12:15.104Z,52.36
2019-05-03T17:14:45.553Z,52.30
2019-05-03T17:17:15.849Z,52.24
2019-05-03T17:19:46.123Z,52.17
2019-05-03T17:22:17.906Z,52.10
2019-05-03T17:24:56.046Z,52.05
2019-05-03T17:27:27.140Z,52.01
2019-05-03T17:29:57.444Z,51.97
2019-05-03T17:32:27.910Z,51.91
2019-05-03T17:34:58.408Z,51.86
2019-05-03T17:37:28.688Z,51.81
2019-05-03T17:40:16.685Z,51.79
2019-05-03T17:43:05.096Z,51.75
2019-05-03T17:45:39.723Z,51.74
2019-05-03T17:48:10.655Z,51.71
2019-05-03T17:50:45.433Z,51.69
2019-05-03T17:53:35.734Z,51.68
2019-05-03T17:56:24.434Z,51.66
2019-05-03T17:59:04.530Z,51.66
2019-05-03T18:01:51.919Z,51.64
2019-05-03T18:04:40.592Z,51.60
2019-05-03T18:07:34.939Z,51.61
2019-05-03T18:10:06.428Z,51.58
2019-05-03T18:12:36.701Z,51.57
2019-05-03T18:15:08.664Z,51.54
2019-05-03T18:17:38.944Z,51.50
2019-05-03T18:20:15.084Z,51.49
2019-05-03T18:22:45.550Z,51.47
2019-05-03T18:25:16.256Z,51.47
2019-05-03T18:27:46.675Z,51.41
2019-05-03T18:30:17.360Z,51.43
2019-05-03T18:32:49.138Z,51.40
2019-05-03T18:35:19.419Z,51.38
2019-05-03T18:37:58.833Z,51.36
2019-05-03T18:40:31.218Z,51.34
2019-05-03T18:43:18.055Z,51.34
2019-05-03T18:46:10.553Z,51.31
2019-05-03T18:48:41.011Z,51.30
2019-05-03T18:51:11.297Z,51.28
2019-05-03T18:53:41.618Z,51.28
2019-05-03T18:56:14.743Z,51.29
2019-05-03T18:58:45.097Z,51.25
2019-05-03T19:01:15.456Z,51.25
2019-05-03T19:03:47.503Z,51.25
2019-05-03T19:06:18.980Z,51.26
2019-05-03T19:09:21.013Z,51.22
2019-05-03T19:12:00.806Z,51.24
2019-05-03T19:14:31.382Z,51.24
2019-05-03T19:17:15.424Z,51.24
2019-05-03T19:19:47.116Z,51.20
2019-05-03T19:22:19.008Z,51.18
2019-05-03T19:24:49.293Z,51.16
2019-05-03T19:27:19.965Z,51.17
2019-05-03T19:29:52.011Z,51.12
2019-05-03T19:32:27.921Z,51.11
2019-05-03T19:34:55.109Z,51.07
2019-05-03T19:37:25.390Z,51.07
2019-05-03T19:39:57.776Z,51.05
2019-05-03T19:42:28.447Z,51.07
2019-05-03T19:44:58.864Z,51.07
2019-05-03T19:47:35.347Z,51.04
2019-05-03T19:50:08.338Z,51.05
2019-05-03T19:52:59.645Z,51.06
2019-05-03T19:55:29.984Z,51.03
2019-05-03T19:58:02.602Z,51.01
2019-05-03T20:00:49.416Z,51.03
2019-05-03T20:03:30.369Z,51.03
2019-05-03T20:06:18.637Z,51.00
2019-05-03T20:08:57.569Z,51.01
2019-05-03T20:11:27.985Z,51.01
2019-05-03T20:13:58.323Z,51.04
2019-05-03T20:16:28.662Z,51.06
2019-05-03T20:18:58.991Z,51.06
2019-05-03T20:21:29.332Z,51.06
2019-05-03T20:24:00.483Z,51.08
2019-05-03T20:26:31.465Z,51.08
2019-05-03T20:29:02.107Z,51.10
2019-05-03T20:31:32.418Z,51.10
2019-05-03T20:34:07.361Z,51.11
2019-05-03T20:36:37.639Z,51.14
2019-05-03T20:39:18.740Z,51.15
2019-05-03T20:41:49.412Z,51.16
2019-05-03T20:44:28.473Z,51.17
2019-05-03T20:47:04.393Z,51.19
2019-05-03T20:49:36.311Z,51.19
2019-05-03T20:52:06.616Z,51.19
2019-05-03T20:54:37.281Z,51.21
2019-05-03T20:57:07.733Z,51.21
2019-05-03T20:59:45.254Z,51.23
2019-05-03T21:02:11.145Z,51.22
2019-05-03T21:04:41.579Z,51.23
2019-05-03T21:07:12.857Z,51.23
2019-05-03T21:09:45.983Z,51.23
2019-05-03T21:12:16.583Z,51.23
2019-05-03T21:14:47.865Z,51.23
2019-05-03T21:17:41.675Z,51.23
2019-05-03T21:20:30.028Z,51.26
2019-05-03T21:23:02.504Z,51.28
2019-05-03T21:26:02.606Z,51.27
2019-05-03T21:28:16.135Z,51.27
2019-05-03T21:30:46.572Z,51.27
2019-05-03T21:33:16.903Z,51.27
2019-05-03T21:35:47.305Z,51.26
2019-05-03T21:38:18.146Z,51.29
2019-05-03T21:40:48.538Z,51.29
2019-05-03T21:43:19.601Z,51.35
2019-05-03T21:45:54.574Z,51.34
2019-05-03T21:48:28.760Z,51.33
2019-05-03T21:50:59.045Z,51.36
2019-05-03T21:53:31.514Z,51.38
2019-05-03T21:56:02.130Z,51.37
2019-05-03T21:58:32.403Z,51.39
2019-05-03T22:01:07.820Z,51.38
2019-05-03T22:03:45.323Z,51.38
2019-05-03T22:06:17.217Z,51.40
2019-05-03T22:08:47.858Z,51.43
2019-05-03T22:11:18.176Z,51.43
2019-05-03T22:13:57.020Z,51.42
2019-05-03T22:16:46.514Z,51.41
2019-05-03T22:19:19.424Z,51.40
2019-05-03T22:22:20.485Z,51.40
2019-05-03T22:24:56.542Z,51.42
2019-05-03T22:27:35.133Z,51.44
2019-05-03T22:30:06.755Z,51.45
2019-05-03T22:32:37.076Z,51.49
2019-05-03T22:35:08.762Z,51.49
2019-05-03T22:37:39.269Z,51.51
2019-05-03T22:40:10.315Z,51.54
2019-05-03T22:42:40.897Z,51.57
2019-05-03T22:45:12.928Z,51.62
2019-05-03T22:47:44.586Z,51.64
2019-05-03T22:50:15.881Z,51.66
2019-05-03T22:52:46.149Z,51.63
2019-05-03T22:55:17.811Z,51.63
2019-05-03T22:57:48.133Z,51.76
2019-05-03T23:00:18.450Z,51.79
2019-05-03T23:02:48.778Z,51.79
2019-05-03T23:05:19.981Z,51.79
2019-05-03T23:07:50.351Z,51.81
2019-05-03T23:10:20.974Z,51.84
2019-05-03T23:13:05.038Z,51.83
2019-05-03T23:15:35.482Z,51.85
2019-05-03T23:18:10.154Z,51.83
2019-05-03T23:20:52.999Z,51.79
2019-05-03T23:24:00.525Z,51.80
2019-05-03T23:26:31.123Z,51.84
2019-05-03T23:29:04.301Z,51.77
2019-05-03T23:31:34.757Z,51.94
2019-05-03T23:34:05.468Z,51.94
2019-05-03T23:36:36.323Z,51.95
2019-05-03T23:39:08.786Z,51.99
2019-05-03T23:41:39.068Z,52.04
2019-05-03T23:44:10.489Z,52.05
2019-05-03T23:47:02.580Z,52.06
2019-05-03T23:49:32.989Z,52.07
2019-05-03T23:52:25.668Z,52.23
2019-05-03T23:54:59.874Z,52.23
2019-05-03T23:57:35.553Z,52.12
